Time;durP1;ratioP1;P1;durP2;ratioP2;P2;SDS_P1;SDS_P2;PMS_P1;PMS_P2;Temp;Humidity;BMP_temperature;BMP_pressure;BME280_temperature;BME280_humidity;BME280_pressure;Samples;Min_cycle;Max_cycle;Signal;HPM_P1;HPM_P2
2022/11/30 00:00:20;;;;;;;30.80;27.87;;;;;;;8.70;84.06;100610.47;5091910;28;20506;-65
2022/11/30 00:02:52;;;;;;;27.13;24.77;;;;;;;8.65;84.22;100621.59;5092229;28;20058;-66
2022/11/30 00:05:19;;;;;;;29.93;22.17;;;;;;;8.63;84.54;100622.94;5091000;28;20052;-65
2022/11/30 00:07:46;;;;;;;25.23;22.87;;;;;;;8.60;84.44;100617.91;5080694;28;20048;-66
2022/11/30 00:10:14;;;;;;;24.87;22.87;;;;;;;8.63;84.74;100620.16;5090202;28;20167;-65
2022/11/30 00:12:42;;;;;;;25.70;23.43;;;;;;;8.44;84.69;100592.72;5078031;28;20049;-65
2022/11/30 00:15:12;;;;;;;34.30;31.67;;;;;;;8.56;84.97;100600.91;5081538;28;20052;-65
2022/11/30 00:17:40;;;;;;;27.17;25.00;;;;;;;8.54;85.15;100603.09;5073271;28;20415;-65
2022/11/30 00:20:11;;;;;;;28.17;25.50;;;;;;;8.51;85.18;100592.50;5066444;28;20281;-66
2022/11/30 00:22:38;;;;;;;30.93;28.37;;;;;;;8.51;85.39;100598.06;5065388;28;20051;-66
2022/11/30 00:25:05;;;;;;;31.40;28.50;;;;;;;8.55;85.29;100596.44;5063317;28;20052;-66
2022/11/30 00:27:33;;;;;;;31.30;28.33;;;;;;;8.50;85.09;100591.66;5035874;28;20045;-66
2022/11/30 00:30:00;;;;;;;27.57;24.60;;;;;;;8.54;84.92;100586.41;5069199;28;20051;-65
2022/11/30 00:32:27;;;;;;;40.57;37.47;;;;;;;8.51;84.85;100587.78;5069855;28;20583;-65
2022/11/30 00:34:54;;;;;;;26.63;24.37;;;;;;;8.46;84.67;100573.81;5071254;28;20044;-68
2022/11/30 00:37:22;;;;;;;26.20;23.70;;;;;;;8.46;84.85;100575.78;5040830;28;20473;-67
2022/11/30 00:39:48;;;;;;;27.17;24.67;;;;;;;8.43;84.95;100567.94;5048879;28;20052;-67
2022/11/30 00:42:15;;;;;;;41.23;38.23;;;;;;;8.44;84.79;100567.66;5068254;28;20079;-68
2022/11/30 00:44:42;;;;;;;27.17;24.80;;;;;;;8.47;84.83;100563.53;5069601;28;20438;-68
2022/11/30 00:47:09;;;;;;;25.90;24.07;;;;;;;8.52;84.76;100566.38;5067358;28;20057;-66
2022/11/30 00:49:36;;;;;;;29.53;27.13;;;;;;;8.59;84.74;100555.00;5063592;28;20044;-66
2022/11/30 00:52:04;;;;;;;25.13;23.10;;;;;;;8.60;84.70;100560.28;5052231;28;20236;-67
2022/11/30 00:54:30;;;;;;;28.37;25.77;;;;;;;8.66;84.49;100542.53;5051149;28;20507;-66
2022/11/30 00:56:57;;;;;;;27.53;25.37;;;;;;;8.72;84.46;100548.97;5067165;28;20063;-66
2022/11/30 00:59:24;;;;;;;27.00;24.73;;;;;;;8.77;84.09;100552.59;5052716;28;20052;-64
2022/11/30 01:01:53;;;;;;;27.87;25.40;;;;;;;8.78;84.01;100537.56;5068754;28;20045;-66
2022/11/30 01:04:20;;;;;;;32.27;28.80;;;;;;;8.86;83.80;100519.53;5072209;28;20053;-65
2022/11/30 01:06:47;;;;;;;29.27;26.77;;;;;;;8.89;83.49;100526.50;5067786;28;20410;-65
2022/11/30 01:09:14;;;;;;;24.10;22.40;;;;;;;8.85;83.31;100503.09;5054533;28;20055;-65
2022/11/30 01:11:41;;;;;;;26.13;24.23;;;;;;;8.84;83.53;100507.00;5053569;28;20053;-66
2022/11/30 01:14:08;;;;;;;24.47;22.80;;;;;;;8.90;83.56;100500.34;5061877;28;20049;-66
2022/11/30 01:16:34;;;;;;;24.10;22.33;;;;;;;8.88;83.44;100485.84;5062305;28;20210;-66
2022/11/30 01:19:02;;;;;;;24.17;22.20;;;;;;;8.98;82.95;100499.81;5073299;28;20442;-65
2022/11/30 01:21:29;;;;;;;21.97;20.50;;;;;;;9.01;82.90;100504.84;5070703;28;20052;-64
2022/11/30 01:23:56;;;;;;;27.37;24.83;;;;;;;8.96;82.97;100499.25;5067492;28;20376;-64
2022/11/30 01:26:24;;;;;;;24.83;22.93;;;;;;;8.95;82.84;100492.00;5068641;28;20053;-65
2022/11/30 01:28:52;;;;;;;24.37;22.30;;;;;;;8.85;83.06;100473.28;5051353;28;20415;-65
2022/11/30 01:31:20;;;;;;;25.57;23.63;;;;;;;8.83;82.96;100478.31;5067441;28;20045;-65
2022/11/30 01:33:49;;;;;;;23.60;21.87;;;;;;;8.85;83.00;100469.66;5069158;28;20048;-65
2022/11/30 01:36:19;;;;;;;27.40;25.13;;;;;;;8.82;82.88;100461.84;5070972;28;20054;-65
2022/11/30 01:38:49;;;;;;;26.87;24.70;;;;;;;8.87;83.02;100473.03;5063054;28;20487;-63
2022/11/30 01:41:30;;;;;;;28.85;25.63;;;;;;;8.92;82.52;100461.91;5059412;28;20048;-67
2022/11/30 01:44:17;;;;;;;27.30;24.93;;;;;;;8.82;82.67;100459.06;5068116;28;20128;-67
2022/11/30 01:46:56;;;;;;;21.53;20.23;;;;;;;8.80;82.88;100461.31;5016120;28;20049;-67
2022/11/30 01:49:29;;;;;;;25.07;23.27;;;;;;;8.83;82.78;100463.56;5070581;28;20044;-67
2022/11/30 01:52:04;;;;;;;27.57;25.23;;;;;;;8.76;82.90;100456.28;5069712;28;20048;-66
2022/11/30 01:54:37;;;;;;;26.93;24.60;;;;;;;8.73;83.12;100448.47;5071200;28;20048;-67
2022/11/30 01:57:12;;;;;;;27.20;24.27;;;;;;;8.84;82.92;100462.44;5062144;28;20064;-67
2022/11/30 01:59:39;;;;;;;38.60;36.23;;;;;;;8.94;82.98;100463.31;5065500;28;20478;-67
2022/11/30 02:02:06;;;;;;;24.67;22.43;;;;;;;9.01;82.56;100475.03;5060559;28;20048;-67
2022/11/30 02:04:38;;;;;;;30.30;27.43;;;;;;;9.05;82.42;100469.75;5065423;28;20550;-67
2022/11/30 02:07:06;;;;;;;25.83;23.47;;;;;;;9.08;82.03;100463.66;5063454;28;20422;-67
2022/11/30 02:09:42;;;;;;;27.77;25.33;;;;;;;9.19;81.77;100481.22;5066619;28;20041;-68
2022/11/30 02:12:29;;;;;;;23.93;22.13;;;;;;;9.11;81.42;100453.91;5069273;28;20060;-68
2022/11/30 02:15:04;;;;;;;23.17;21.40;;;;;;;9.14;81.54;100457.00;5069221;28;20483;-68
2022/11/30 02:17:52;;;;;;;24.10;22.33;;;;;;;9.21;81.50;100463.13;5064377;28;20067;-68
2022/11/30 02:20:49;;;;;;;29.70;26.60;;;;;;;9.12;81.40;100453.63;5071229;28;20048;-68
2022/11/30 02:23:50;;;;;;;23.40;21.60;;;;;;;9.11;81.32;100457.53;5059296;28;20063;-68
2022/11/30 02:26:46;;;;;;;25.27;23.23;;;;;;;9.07;81.33;100450.84;5064547;28;20094;-67
2022/11/30 02:29:38;;;;;;;24.90;22.90;;;;;;;9.04;81.54;100445.81;5067385;28;20499;-68
2022/11/30 02:32:29;;;;;;;27.17;24.43;;;;;;;8.91;81.79;100440.75;5061883;28;20048;-68
2022/11/30 02:34:59;;;;;;;24.53;22.73;;;;;;;8.96;82.01;100443.56;5060417;28;20388;-68
2022/11/30 02:37:28;;;;;;;25.17;23.07;;;;;;;8.90;82.25;100444.66;5068400;28;20056;-68
2022/11/30 02:39:57;;;;;;;26.30;23.90;;;;;;;8.91;82.23;100440.75;5043085;28;20056;-67
2022/11/30 02:42:23;;;;;;;25.77;23.47;;;;;;;8.81;82.49;100437.91;5063800;28;20048;-65
2022/11/30 02:44:52;;;;;;;21.90;20.57;;;;;;;8.86;82.39;100433.22;5064940;28;20048;-68
2022/11/30 02:47:33;;;;;;;26.73;24.50;;;;;;;8.76;82.62;100424.81;5042177;28;20507;-67
2022/11/30 02:50:10;;;;;;;22.90;21.30;;;;;;;8.81;82.61;100429.56;5062629;28;20048;-67
2022/11/30 02:52:38;;;;;;;22.97;21.23;;;;;;;8.87;82.53;100417.34;5059375;28;20053;-67
2022/11/30 02:55:08;;;;;;;24.30;22.37;;;;;;;8.83;82.47;100408.69;5068706;28;20057;-67
2022/11/30 02:57:35;;;;;;;25.02;23.02;;;;;;;8.76;82.50;100410.91;5068522;28;20045;-67
2022/11/30 03:00:06;;;;;;;24.03;21.93;;;;;;;8.69;82.46;100388.88;5070506;28;20128;-67
2022/11/30 03:02:33;;;;;;;28.93;26.23;;;;;;;8.83;82.19;100403.13;5049858;28;20056;-69
2022/11/30 03:05:00;;;;;;;23.67;22.07;;;;;;;8.81;82.34;100393.34;5072176;28;20079;-68
2022/11/30 03:07:27;;;;;;;22.63;20.93;;;;;;;8.77;82.27;100393.91;5058300;28;20407;-69
2022/11/30 03:09:54;;;;;;;22.50;21.03;;;;;;;8.78;82.40;100392.78;5070840;28;20071;-69
2022/11/30 03:12:21;;;;;;;24.43;22.57;;;;;;;8.70;82.44;100387.75;5065144;28;20060;-68
2022/11/30 03:14:48;;;;;;;26.07;23.80;;;;;;;8.66;82.43;100378.28;5070724;28;20048;-68
2022/11/30 03:17:15;;;;;;;24.87;22.93;;;;;;;8.69;82.58;100391.66;5070987;28;20060;-69
2022/11/30 03:19:42;;;;;;;22.30;20.63;;;;;;;8.62;82.72;100377.16;5068439;28;20052;-68
2022/11/30 03:22:08;;;;;;;26.10;23.77;;;;;;;8.54;82.91;100369.31;5071957;28;20048;-68
2022/11/30 03:24:35;;;;;;;24.23;22.13;;;;;;;8.64;82.90;100376.88;5071226;28;20045;-67
2022/11/30 03:27:02;;;;;;;26.07;24.03;;;;;;;8.54;82.90;100369.31;5066374;28;20041;-68
2022/11/30 03:29:29;;;;;;;26.13;23.80;;;;;;;8.56;83.01;100377.41;5057545;28;20360;-68
2022/11/30 03:31:56;;;;;;;25.17;23.37;;;;;;;8.57;82.75;100370.72;5069239;28;20067;-68
2022/11/30 03:34:25;;;;;;;26.90;24.60;;;;;;;8.58;83.08;100376.03;5071750;28;20072;-68
2022/11/30 03:36:53;;;;;;;26.30;24.13;;;;;;;8.65;82.92;100375.75;5072128;28;20048;-68
2022/11/30 03:39:19;;;;;;;23.97;22.13;;;;;;;8.75;82.63;100368.28;5070335;28;20296;-68
2022/11/30 03:41:46;;;;;;;22.47;20.67;;;;;;;8.86;82.36;100366.38;5068492;28;20055;-69
2022/11/30 03:44:13;;;;;;;24.00;22.23;;;;;;;8.90;82.07;100372.22;5070983;28;20044;-68
2022/11/30 03:46:40;;;;;;;23.73;22.07;;;;;;;8.98;81.90;100368.91;5062916;28;20044;-69
2022/11/30 03:49:07;;;;;;;23.87;22.20;;;;;;;9.00;81.77;100366.69;5073042;28;20094;-68
2022/11/30 03:51:34;;;;;;;25.20;23.33;;;;;;;8.92;81.77;100353.28;5045888;28;20048;-67
2022/11/30 03:54:01;;;;;;;23.23;21.37;;;;;;;8.97;81.89;100356.09;5069553;28;20053;-68
2022/11/30 03:56:28;;;;;;;23.80;22.20;;;;;;;8.96;81.39;100337.72;5067061;28;20040;-68
2022/11/30 03:58:55;;;;;;;22.73;21.00;;;;;;;8.91;81.31;100334.91;5066730;28;20049;-68
2022/11/30 04:01:23;;;;;;;22.53;20.93;;;;;;;9.07;81.16;100350.56;5073010;28;20052;-68
2022/11/30 04:03:51;;;;;;;23.57;21.63;;;;;;;9.13;80.80;100346.66;5072910;28;20044;-68
2022/11/30 04:06:20;;;;;;;22.47;21.00;;;;;;;9.10;80.81;100344.44;5062699;28;20511;-68
2022/11/30 04:08:47;;;;;;;21.63;20.10;;;;;;;9.07;80.72;100341.38;5064645;28;20484;-68
2022/11/30 04:11:14;;;;;;;19.37;18.07;;;;;;;9.07;80.58;100330.22;5065224;28;20510;-68
2022/11/30 04:13:41;;;;;;;23.47;21.50;;;;;;;9.17;80.53;100339.44;5065805;28;20056;-69
2022/11/30 04:16:09;;;;;;;23.73;21.77;;;;;;;9.06;80.42;100315.47;5067695;28;20064;-69
2022/11/30 04:18:37;;;;;;;24.27;22.30;;;;;;;9.14;80.56;100339.97;5072629;28;20052;-69
2022/11/30 04:21:05;;;;;;;22.27;20.40;;;;;;;9.15;80.52;100336.06;5070263;28;20487;-69
2022/11/30 04:23:36;;;;;;;23.20;21.40;;;;;;;9.16;80.33;100343.34;5057613;28;20495;-70
2022/11/30 04:26:04;;;;;;;22.93;21.37;;;;;;;9.16;80.27;100328.53;5068916;28;20054;-70
2022/11/30 04:28:31;;;;;;;21.73;20.20;;;;;;;9.12;80.15;100325.47;5072639;28;20462;-67
2022/11/30 04:30:59;;;;;;;24.23;22.37;;;;;;;9.17;80.47;100325.50;5073447;28;20052;-68
2022/11/30 04:33:27;;;;;;;22.40;20.60;;;;;;;8.96;80.18;100287.59;5072418;28;20098;-67
2022/11/30 04:35:56;;;;;;;23.60;21.73;;;;;;;9.09;80.28;100320.44;5063676;28;20410;-68
2022/11/30 04:38:24;;;;;;;21.70;19.95;;;;;;;9.07;80.33;100317.13;5069938;28;20049;-68
2022/11/30 04:40:52;;;;;;;22.23;20.70;;;;;;;9.15;80.33;100319.34;5070639;28;20047;-67
2022/11/30 04:43:19;;;;;;;22.20;20.70;;;;;;;9.15;80.33;100318.53;5062972;28;20052;-66
2022/11/30 04:45:47;;;;;;;23.13;21.00;;;;;;;9.09;80.38;100297.34;5070526;28;20058;-67
2022/11/30 04:48:15;;;;;;;21.57;20.10;;;;;;;9.07;80.43;100305.97;5076007;28;20049;-67
2022/11/30 04:50:42;;;;;;;21.40;19.80;;;;;;;9.09;80.50;100295.38;5065912;28;20036;-67
2022/11/30 04:53:10;;;;;;;22.30;20.83;;;;;;;8.97;80.66;100289.25;5067990;28;20049;-67
2022/11/30 04:55:37;;;;;;;23.60;21.83;;;;;;;9.01;80.77;100293.16;5067959;28;20044;-67
2022/11/30 04:58:04;;;;;;;23.67;22.10;;;;;;;9.02;80.58;100294.81;5050132;28;20059;-69
2022/11/30 05:00:31;;;;;;;22.57;20.90;;;;;;;8.98;80.75;100286.19;5070131;28;20052;-68
2022/11/30 05:02:58;;;;;;;22.87;20.83;;;;;;;8.98;80.57;100282.56;5066345;28;20048;-66
2022/11/30 05:05:25;;;;;;;20.73;19.27;;;;;;;9.08;80.78;100277.00;5071836;28;20139;-67
2022/11/30 05:07:57;;;;;;;21.37;19.73;;;;;;;9.04;80.66;100266.72;5070043;28;20044;-68
2022/11/30 05:10:25;;;;;;;22.63;20.97;;;;;;;9.03;80.39;100249.16;5070334;28;20074;-68
2022/11/30 05:12:52;;;;;;;24.97;23.00;;;;;;;9.00;80.34;100242.19;5065781;28;20048;-68
2022/11/30 05:15:19;;;;;;;26.33;24.63;;;;;;;9.05;80.31;100235.78;5064865;28;20060;-68
2022/11/30 05:17:46;;;;;;;23.00;21.47;;;;;;;9.10;80.04;100237.75;5070909;28;20056;-68
2022/11/30 05:20:13;;;;;;;20.07;18.57;;;;;;;9.12;80.11;100247.47;5066159;28;20495;-68
2022/11/30 05:22:40;;;;;;;22.07;20.47;;;;;;;9.18;79.82;100246.38;5070069;28;20052;-69
2022/11/30 05:25:08;;;;;;;22.97;20.90;;;;;;;9.21;79.67;100248.59;5070938;28;20059;-69
2022/11/30 05:27:35;;;;;;;21.47;19.90;;;;;;;9.29;79.50;100251.94;5066105;28;20067;-68
2022/11/30 05:30:03;;;;;;;19.63;18.57;;;;;;;9.21;79.43;100240.25;5064439;28;20118;-68
2022/11/30 05:32:30;;;;;;;23.90;22.07;;;;;;;9.27;79.42;100262.53;5065780;28;20048;-68
2022/11/30 05:34:57;;;;;;;22.00;20.43;;;;;;;9.16;79.27;100242.19;5069401;28;20041;-68
2022/11/30 05:37:24;;;;;;;23.80;22.27;;;;;;;9.25;79.29;100240.50;5065926;28;20087;-68
2022/11/30 05:39:51;;;;;;;23.20;21.57;;;;;;;9.23;79.17;100257.53;5059715;28;20044;-70
2022/11/30 05:42:18;;;;;;;24.07;21.97;;;;;;;9.33;79.16;100258.63;5068397;28;20475;-69
2022/11/30 05:44:44;;;;;;;21.93;20.40;;;;;;;9.29;79.06;100247.19;5069013;28;20060;-68
2022/11/30 05:47:12;;;;;;;21.43;19.93;;;;;;;9.22;79.29;100232.72;5069204;28;20553;-68
2022/11/30 05:49:39;;;;;;;20.80;19.50;;;;;;;9.17;79.26;100233.56;5070424;28;20614;-70
2022/11/30 05:52:05;;;;;;;24.80;22.63;;;;;;;9.24;79.54;100242.47;5069642;28;20041;-69
2022/11/30 05:54:33;;;;;;;22.20;20.43;;;;;;;9.28;79.31;100244.69;5057303;28;20048;-69
2022/11/30 05:57:00;;;;;;;22.03;20.37;;;;;;;9.16;79.49;100219.88;5068552;28;20143;-69
2022/11/30 05:59:27;;;;;;;21.27;19.70;;;;;;;9.18;79.36;100237.19;5065837;28;20490;-69
2022/11/30 06:01:54;;;;;;;19.83;18.70;;;;;;;9.17;79.21;100238.31;5067313;28;20688;-69
2022/11/30 06:04:21;;;;;;;22.57;20.80;;;;;;;9.09;79.49;100236.06;5068912;28;20052;-69
2022/11/30 06:06:48;;;;;;;21.90;20.17;;;;;;;9.10;79.41;100244.16;5065628;28;20495;-67
2022/11/30 06:09:15;;;;;;;22.17;20.57;;;;;;;9.27;78.97;100243.03;5044973;28;20063;-65
2022/11/30 06:11:42;;;;;;;20.73;19.33;;;;;;;9.30;78.95;100248.03;5065536;28;20047;-67
2022/11/30 06:14:09;;;;;;;20.13;18.93;;;;;;;9.25;78.88;100244.13;5068022;28;20048;-68
2022/11/30 06:16:38;;;;;;;21.67;20.07;;;;;;;9.25;78.82;100235.78;5064688;28;20503;-68
2022/11/30 06:19:05;;;;;;;21.88;20.30;;;;;;;9.15;79.42;100246.91;5070306;28;20040;-68
2022/11/30 06:21:32;;;;;;;24.30;22.60;;;;;;;9.03;79.39;100243.59;5046130;28;20044;-66
2022/11/30 06:23:59;;;;;;;26.27;24.57;;;;;;;8.70;80.78;100239.38;5069115;28;20737;-65
2022/11/30 06:26:26;;;;;;;25.63;23.73;;;;;;;8.64;81.86;100235.72;5065714;28;20052;-65
2022/11/30 06:28:53;;;;;;;26.40;24.63;;;;;;;8.47;83.21;100229.56;5067237;28;20045;-66
2022/11/30 06:31:19;;;;;;;42.70;40.03;;;;;;;8.51;83.27;100242.69;5064307;28;20048;-66
2022/11/30 06:33:47;;;;;;;27.73;25.67;;;;;;;8.45;83.97;100231.81;5071947;28;20135;-67
2022/11/30 06:36:20;;;;;;;26.57;25.07;;;;;;;8.41;85.27;100230.66;5071069;28;20052;-66
2022/11/30 06:38:47;;;;;;;29.47;27.57;;;;;;;8.32;85.81;100238.69;5067368;28;20056;-65
2022/11/30 06:41:14;;;;;;;30.20;28.13;;;;;;;8.29;86.06;100244.81;5074802;28;20040;-65
2022/11/30 06:43:40;;;;;;;35.10;32.67;;;;;;;8.27;86.56;100253.44;5070609;28;20059;-65
2022/11/30 06:46:10;;;;;;;28.83;27.13;;;;;;;8.27;86.76;100247.88;5068633;28;20056;-66
2022/11/30 06:48:37;;;;;;;33.28;30.63;;;;;;;8.31;86.90;100250.94;5032028;28;20052;-66
2022/11/30 06:51:06;;;;;;;30.37;28.33;;;;;;;8.30;87.25;100247.28;5055433;28;20047;-65
2022/11/30 06:53:33;;;;;;;31.43;29.03;;;;;;;8.21;88.44;100248.13;5063534;28;20052;-66
2022/11/30 06:56:06;;;;;;;31.30;28.80;;;;;;;8.14;88.78;100239.19;5067529;28;20070;-67
2022/11/30 06:58:37;;;;;;;33.47;30.73;;;;;;;8.12;89.52;100238.63;5053275;28;20045;-67
2022/11/30 07:01:05;;;;;;;28.90;27.20;;;;;;;8.07;89.63;100234.72;5069236;28;20400;-67
2022/11/30 07:03:32;;;;;;;49.77;47.30;;;;;;;8.15;88.91;100250.03;5062449;28;20099;-67
2022/11/30 07:05:58;;;;;;;31.27;29.07;;;;;;;7.93;89.87;100235.47;5063790;28;20048;-68
2022/11/30 07:08:25;;;;;;;31.73;29.53;;;;;;;8.01;90.28;100246.09;5069518;28;20044;-72
2022/11/30 07:10:52;;;;;;;34.53;31.77;;;;;;;8.04;91.01;100265.84;5068397;28;20037;-68
2022/11/30 07:13:19;;;;;;;35.53;32.80;;;;;;;7.99;91.31;100256.63;5064508;28;20079;-67
2022/11/30 07:15:46;;;;;;;34.90;32.00;;;;;;;7.93;91.88;100257.72;5061365;28;20061;-67
2022/11/30 07:18:13;;;;;;;35.33;32.40;;;;;;;7.87;92.22;100244.91;5072642;28;20055;-65
2022/11/30 07:20:40;;;;;;;36.63;34.07;;;;;;;7.91;92.24;100244.09;5066784;28;20143;-73
2022/11/30 07:26:05;;;;;;;63.13;59.53;;;;;;;7.86;92.80;100248.78;5076068;28;20048;-67
2022/11/30 07:28:33;;;;;;;43.22;40.45;;;;;;;7.84;93.11;100241.56;5072644;28;20041;-66
2022/11/30 07:31:01;;;;;;;34.23;31.60;;;;;;;7.86;93.30;100232.94;5065419;28;20053;-64
2022/11/30 07:33:27;;;;;;;35.70;33.20;;;;;;;7.80;93.64;100234.88;5069882;28;20381;-66
2022/11/30 07:35:54;;;;;;;70.73;66.73;;;;;;;7.79;94.20;100237.91;5066560;28;20044;-66
2022/11/30 07:38:21;;;;;;;51.97;48.57;;;;;;;7.88;94.34;100232.69;5052694;28;20049;-65
2022/11/30 07:40:48;;;;;;;36.80;34.00;;;;;;;7.84;94.60;100254.63;5071884;28;20471;-65
2022/11/30 07:43:15;;;;;;;35.70;33.17;;;;;;;7.90;94.60;100252.69;5067793;28;20578;-64
2022/11/30 07:45:42;;;;;;;55.70;52.33;;;;;;;7.93;94.76;100268.81;5050236;28;20068;-65
2022/11/30 07:48:09;;;;;;;58.80;55.40;;;;;;;7.96;94.75;100269.13;5071822;28;20060;-65
2022/11/30 07:50:35;;;;;;;36.97;34.73;;;;;;;7.95;94.74;100261.91;5071167;28;20044;-65
2022/11/30 07:53:02;;;;;;;35.00;32.07;;;;;;;7.82;94.95;100245.69;5067542;28;20047;-65
2022/11/30 07:55:30;;;;;;;33.70;31.00;;;;;;;8.04;94.96;100265.84;5069950;28;20055;-65
2022/11/30 07:57:57;;;;;;;74.37;70.27;;;;;;;8.04;95.02;100260.28;5069976;28;20053;-66
2022/11/30 08:00:23;;;;;;;35.57;32.93;;;;;;;8.04;95.21;100248.34;5067179;28;20075;-65
2022/11/30 08:02:50;;;;;;;60.40;57.03;;;;;;;8.02;95.09;100253.31;5068682;28;20135;-65
2022/11/30 08:05:17;;;;;;;34.33;32.03;;;;;;;8.05;95.22;100245.25;5072743;28;20059;-66
2022/11/30 08:07:44;;;;;;;50.60;47.43;;;;;;;7.99;95.49;100249.13;5064377;28;20044;-65
2022/11/30 08:10:11;;;;;;;76.30;72.70;;;;;;;8.03;95.40;100247.50;5044218;28;20414;-65
2022/11/30 08:12:38;;;;;;;53.50;50.17;;;;;;;8.00;95.66;100252.72;5067029;28;20044;-65
2022/11/30 08:15:06;;;;;;;60.83;57.27;;;;;;;7.94;95.76;100234.38;5062044;28;20044;-65
2022/11/30 08:17:54;;;;;;;34.57;32.30;;;;;;;8.02;96.05;100237.47;5063195;28;20060;-65
2022/11/30 08:20:21;;;;;;;34.73;32.33;;;;;;;8.02;96.24;100251.38;5068852;28;20057;-66
2022/11/30 08:22:48;;;;;;;33.40;31.07;;;;;;;8.10;96.22;100224.97;5063563;28;20056;-65
2022/11/30 08:25:15;;;;;;;34.93;32.17;;;;;;;8.10;96.23;100235.25;5062353;28;20052;-66
2022/11/30 08:27:42;;;;;;;34.00;31.40;;;;;;;8.12;96.15;100206.06;5064344;28;20044;-65
2022/11/30 08:30:09;;;;;;;55.33;52.00;;;;;;;8.26;96.06;100225.88;5070086;28;20075;-67
2022/11/30 08:32:35;;;;;;;33.13;30.23;;;;;;;8.29;96.14;100228.94;5068100;28;20044;-65
2022/11/30 08:35:03;;;;;;;32.10;30.00;;;;;;;8.41;96.09;100230.66;5065967;28;20060;-66
2022/11/30 08:37:30;;;;;;;30.73;28.57;;;;;;;8.42;95.83;100233.19;5064051;28;20434;-66
2022/11/30 08:39:56;;;;;;;30.00;27.90;;;;;;;8.41;96.29;100222.31;5068269;28;20052;-66
2022/11/30 08:42:23;;;;;;;32.63;30.03;;;;;;;8.36;96.08;100212.00;5059938;28;20627;-67
2022/11/30 08:44:50;;;;;;;34.23;31.63;;;;;;;8.54;96.21;100230.16;5058246;28;20418;-68
2022/11/30 08:47:17;;;;;;;31.17;28.33;;;;;;;8.56;96.13;100199.28;5057573;28;20052;-68
2022/11/30 08:49:44;;;;;;;31.57;29.37;;;;;;;8.64;96.00;100213.47;5057449;28;20082;-68
2022/11/30 08:52:10;;;;;;;30.53;28.53;;;;;;;8.70;95.84;100211.53;5056675;28;20498;-66
2022/11/30 08:54:46;;;;;;;32.13;29.83;;;;;;;8.72;95.60;100192.63;5061758;28;20187;-67
2022/11/30 08:57:18;;;;;;;30.43;28.30;;;;;;;8.80;95.47;100194.84;5065749;28;20135;-68
2022/11/30 08:59:45;;;;;;;29.90;27.50;;;;;;;8.80;95.03;100205.16;5063108;28;21172;-66
2022/11/30 09:02:16;;;;;;;31.43;29.37;;;;;;;8.80;94.99;100199.56;5063267;28;20510;-67
2022/11/30 09:04:44;;;;;;;29.50;27.17;;;;;;;8.93;94.91;100201.81;5057711;28;20086;-68
2022/11/30 09:07:10;;;;;;;40.43;38.07;;;;;;;8.88;94.51;100207.38;5054633;28;20057;-68
2022/11/30 09:09:38;;;;;;;29.77;27.37;;;;;;;8.96;94.54;100206.84;5062622;28;21176;-68
2022/11/30 09:12:05;;;;;;;34.97;32.53;;;;;;;8.94;94.54;100204.31;5059543;28;20052;-67
2022/11/30 09:14:32;;;;;;;29.73;27.63;;;;;;;8.93;94.63;100199.03;5060954;28;20056;-67
2022/11/30 09:16:59;;;;;;;30.67;28.47;;;;;;;8.91;94.69;100204.03;5063528;28;20063;-68
2022/11/30 09:19:26;;;;;;;30.70;28.43;;;;;;;8.93;94.69;100187.88;5043905;28;20055;-67
2022/11/30 09:21:53;;;;;;;30.50;28.57;;;;;;;9.05;94.50;100187.59;5059745;28;20393;-67
2022/11/30 09:24:20;;;;;;;29.20;27.17;;;;;;;9.02;94.61;100194.56;5065335;28;20706;-66
2022/11/30 09:26:47;;;;;;;28.67;26.77;;;;;;;9.06;94.73;100203.19;5057524;28;20518;-67
2022/11/30 09:29:14;;;;;;;28.87;26.80;;;;;;;9.08;94.69;100196.22;5056928;28;20064;-66
2022/11/30 09:31:41;;;;;;;52.70;49.43;;;;;;;8.93;94.71;100177.59;5032413;28;20048;-66
2022/11/30 09:34:10;;;;;;;42.67;39.67;;;;;;;9.08;94.60;100184.25;5065944;28;20487;-66
2022/11/30 09:36:37;;;;;;;31.80;29.47;;;;;;;8.96;94.60;100181.75;5061263;28;20426;-66
2022/11/30 09:39:04;;;;;;;29.67;27.57;;;;;;;9.00;94.51;100202.38;5044080;28;20060;-67
2022/11/30 09:41:57;;;;;;;28.67;26.73;;;;;;;8.94;94.07;100178.41;5065159;28;20044;-66
2022/11/30 09:44:47;;;;;;;29.73;27.43;;;;;;;8.91;94.43;100179.78;5062737;28;20056;-65
2022/11/30 09:47:29;;;;;;;27.97;26.07;;;;;;;9.04;94.34;100178.41;5059226;28;20392;-66
2022/11/30 09:50:03;;;;;;;30.23;28.13;;;;;;;8.95;94.36;100174.50;5057546;28;20472;-66
2022/11/30 09:52:43;;;;;;;27.70;25.90;;;;;;;9.04;94.47;100172.00;5062094;28;20084;-67
2022/11/30 09:55:14;;;;;;;29.23;27.27;;;;;;;9.05;94.11;100163.34;5064106;28;20052;-67
2022/11/30 09:57:47;;;;;;;28.47;26.33;;;;;;;9.10;94.24;100162.53;5057321;28;20060;-67
2022/11/30 10:00:14;;;;;;;30.33;27.57;;;;;;;8.93;93.93;100166.44;5064559;28;20519;-67
2022/11/30 10:02:42;;;;;;;47.30;44.73;;;;;;;8.96;93.97;100159.50;5058258;28;20044;-66
2022/11/30 10:05:15;;;;;;;27.77;25.80;;;;;;;9.01;93.70;100162.25;5049239;28;20071;-67
2022/11/30 10:08:16;;;;;;;29.17;26.83;;;;;;;8.96;93.42;100176.19;5051720;28;20049;-67
2022/11/30 10:11:19;;;;;;;29.77;27.77;;;;;;;8.87;93.87;100161.97;5056713;28;20068;-67
2022/11/30 10:14:16;;;;;;;27.97;26.17;;;;;;;8.93;93.76;100160.03;5064434;28;20057;-68
2022/11/30 10:16:58;;;;;;;28.70;26.70;;;;;;;8.87;93.47;100172.28;5062287;28;20052;-66
2022/11/30 10:19:38;;;;;;;28.47;26.30;;;;;;;8.86;93.90;100160.31;5053790;28;20499;-65
2022/11/30 10:22:21;;;;;;;29.30;27.30;;;;;;;8.81;93.79;100156.69;5060337;28;20044;-66
2022/11/30 10:25:24;;;;;;;28.37;26.27;;;;;;;8.86;94.00;100156.72;5055000;28;20056;-67
2022/11/30 10:27:58;;;;;;;27.03;25.23;;;;;;;8.94;94.29;100167.28;5061795;28;20495;-66
2022/11/30 10:30:47;;;;;;;27.77;25.63;;;;;;;8.97;94.32;100161.16;5059555;28;20187;-66
2022/11/30 10:33:23;;;;;;;27.57;25.77;;;;;;;8.93;94.12;100168.41;5059328;28;20071;-66
2022/11/30 10:35:59;;;;;;;59.70;56.60;;;;;;;8.86;94.06;100148.34;5063142;28;20055;-65
2022/11/30 10:38:35;;;;;;;31.87;29.63;;;;;;;8.86;94.73;100157.53;5045165;28;20049;-65
2022/11/30 10:41:34;;;;;;;31.33;28.73;;;;;;;8.88;94.92;100143.31;5054804;28;20270;-65
2022/11/30 10:44:09;;;;;;;29.47;27.33;;;;;;;9.00;95.08;100166.16;5044469;28;20587;-65
2022/11/30 10:46:42;;;;;;;28.03;26.03;;;;;;;8.93;95.04;100160.03;5054295;28;20155;-64
2022/11/30 10:49:17;;;;;;;26.83;25.00;;;;;;;8.97;94.93;100150.84;5058908;28;20072;-65
2022/11/30 10:51:52;;;;;;;25.93;24.23;;;;;;;9.03;94.59;100121.03;5059725;28;20044;-66
2022/11/30 10:54:21;;;;;;;42.07;39.63;;;;;;;8.91;94.70;100124.09;5040011;28;20055;-66
2022/11/30 10:56:48;;;;;;;27.13;25.33;;;;;;;8.99;94.86;100114.34;5054751;28;20542;-66
2022/11/30 10:59:39;;;;;;;35.67;33.30;;;;;;;8.99;94.56;100097.63;5060366;28;20067;-66
2022/11/30 11:02:34;;;;;;;27.87;25.93;;;;;;;8.86;94.28;100103.81;5056564;28;20072;-66
2022/11/30 11:05:24;;;;;;;28.70;26.47;;;;;;;8.72;94.42;100082.09;5059206;28;20080;-66
2022/11/30 11:07:57;;;;;;;27.67;25.67;;;;;;;8.84;94.52;100095.72;5053567;28;20045;-66
2022/11/30 11:10:43;;;;;;;30.63;28.13;;;;;;;8.92;94.93;100066.44;5057528;28;20049;-66
2022/11/30 11:13:19;;;;;;;29.30;27.20;;;;;;;8.87;94.90;100077.63;5059836;28;20447;-66
2022/11/30 11:15:58;;;;;;;29.20;27.23;;;;;;;8.71;95.52;100058.13;5063136;28;20048;-66
2022/11/30 11:18:28;;;;;;;61.13;57.93;;;;;;;8.66;96.05;100047.03;5053044;28;20054;-66
2022/11/30 11:21:08;;;;;;;55.78;52.50;;;;;;;8.63;96.68;100050.38;5059913;28;20403;-65
2022/11/30 11:23:36;;;;;;;33.87;31.77;;;;;;;8.70;97.06;100055.66;5061789;28;20044;-65
2022/11/30 11:26:06;;;;;;;31.80;29.50;;;;;;;8.72;97.24;100037.56;5058120;28;20430;-64
2022/11/30 11:28:35;;;;;;;33.25;30.77;;;;;;;8.77;97.57;100034.75;5037196;28;20079;-64
2022/11/30 11:31:29;;;;;;;34.70;32.37;;;;;;;8.78;97.52;100019.69;5055966;28;20048;-65
2022/11/30 11:33:56;;;;;;;34.80;32.03;;;;;;;8.90;98.01;100040.84;5055630;28;20114;-65